Time;durP1;ratioP1;P1;durP2;ratioP2;P2;SDS_P1;SDS_P2;PMS_P1;PMS_P2;Temp;Humidity;BMP_temperature;BMP_pressure;BME280_temperature;BME280_humidity;BME280_pressure;Samples;Min_cycle;Max_cycle;Signal;HPM_P1;HPM_P2
2021/01/11 00:01:37;;;;;;;28.05;10.82;;;-3275.70;66.40;;;;;;5055822;28;20532;-43
2021/01/11 00:04:03;;;;;;;26.63;10.32;;;-3275.60;66.70;;;;;;5055814;28;20029;-43
2021/01/11 00:06:35;;;;;;;25.92;11.00;;;-3275.60;66.70;;;;;;5055854;28;20151;-43
2021/01/11 00:09:01;;;;;;;23.75;10.27;;;-3275.70;66.50;;;;;;5060797;28;20120;-43
2021/01/11 00:11:27;;;;;;;24.70;9.32;;;-3275.70;66.70;;;;;;5059912;28;20117;-44
2021/01/11 00:13:52;;;;;;;25.45;10.05;;;-3275.90;66.10;;;;;;5055756;28;20064;-45
2021/01/11 00:16:18;;;;;;;24.98;9.63;;;-3275.80;66.10;;;;;;5055378;28;20044;-41
2021/01/11 00:18:44;;;;;;;24.77;10.73;;;-3275.80;66.20;;;;;;5055595;28;20533;-45
2021/01/11 00:21:15;;;;;;;24.73;10.52;;;-3275.80;66.40;;;;;;5054140;28;20128;-43
2021/01/11 00:23:40;;;;;;;27.95;11.13;;;-3275.90;66.40;;;;;;5055734;28;20453;-43
2021/01/11 00:26:12;;;;;;;24.58;10.43;;;-3275.90;66.40;;;;;;5061574;28;20131;-44
2021/01/11 00:28:41;;;;;;;24.50;11.80;;;-3275.90;66.10;;;;;;5075549;28;20034;-44
2021/01/11 00:31:07;;;;;;;23.75;9.40;;;-3276.00;65.70;;;;;;5075148;28;20063;-43
2021/01/11 00:33:33;;;;;;;28.73;10.52;;;-3276.00;65.90;;;;;;5074300;28;20040;-43
2021/01/11 00:36:00;;;;;;;25.05;10.88;;;-3276.00;65.90;;;;;;5074141;28;20056;-43
2021/01/11 00:38:26;;;;;;;24.00;10.30;;;-3275.80;66.40;;;;;;5057462;28;20127;-43
2021/01/11 00:40:52;;;;;;;25.05;11.10;;;-3275.80;66.60;;;;;;5067343;28;20025;-42
2021/01/11 00:43:17;;;;;;;25.98;12.10;;;-3275.90;66.20;;;;;;5054223;28;20074;-44
2021/01/11 00:45:43;;;;;;;25.63;9.90;;;-3275.90;66.30;;;;;;5055066;28;20075;-44
2021/01/11 00:48:09;;;;;;;25.42;9.95;;;-3275.90;66.50;;;;;;5054972;28;20481;-44
2021/01/11 00:50:35;;;;;;;25.73;10.45;;;-3275.90;66.60;;;;;;5055279;28;20036;-42
2021/01/11 00:53:01;;;;;;;19.85;7.97;;;-3275.90;66.40;;;;;;5055106;28;20031;-42
2021/01/11 00:55:26;;;;;;;29.42;10.25;;;-3275.90;65.80;;;;;;5071505;28;20036;-43
2021/01/11 00:57:52;;;;;;;27.55;11.43;;;-3275.90;66.20;;;;;;5073717;28;20025;-43
2021/01/11 01:00:19;;;;;;;28.90;10.68;;;-3275.80;66.60;;;;;;5072353;28;20028;-43
2021/01/11 01:02:46;;;;;;;26.73;10.52;;;-3275.80;66.40;;;;;;5075156;28;20558;-43
2021/01/11 01:05:13;;;;;;;24.63;9.80;;;-3275.80;66.40;;;;;;5074673;28;20040;-44
2021/01/11 01:07:39;;;;;;;25.27;10.68;;;-3275.80;66.80;;;;;;5074798;28;20516;-43
2021/01/11 01:10:05;;;;;;;25.85;10.60;;;-3275.80;66.50;;;;;;5074712;28;20032;-45
2021/01/11 01:12:32;;;;;;;24.30;9.55;;;-3275.80;66.40;;;;;;5074634;28;20029;-44
2021/01/11 01:14:58;;;;;;;25.00;10.50;;;-3275.60;66.60;;;;;;5074770;28;20069;-42
2021/01/11 01:17:24;;;;;;;28.48;11.27;;;-3275.60;67.30;;;;;;5073704;28;20036;-43
2021/01/11 01:19:49;;;;;;;26.05;11.23;;;-3275.70;67.00;;;;;;5074472;28;20079;-43
2021/01/11 01:22:15;;;;;;;26.00;10.52;;;-3275.70;66.80;;;;;;5074221;28;20032;-43
2021/01/11 01:24:41;;;;;;;24.02;9.95;;;-3275.80;66.30;;;;;;5064918;28;20070;-44
2021/01/11 01:27:08;;;;;;;26.67;11.07;;;-3275.90;66.20;;;;;;5054275;28;20037;-43
2021/01/11 01:29:34;;;;;;;27.38;10.23;;;-3275.90;65.80;;;;;;5053047;28;20120;-42
2021/01/11 01:31:59;;;;;;;23.50;9.73;;;-3275.90;65.70;;;;;;5053144;28;20138;-42
2021/01/11 01:34:25;;;;;;;26.40;10.77;;;-3275.90;66.10;;;;;;5066664;28;20163;-42
2021/01/11 01:36:51;;;;;;;24.42;10.85;;;-3275.90;66.40;;;;;;5074233;28;20077;-42
2021/01/11 01:39:17;;;;;;;22.08;9.07;;;-3275.90;65.90;;;;;;5073818;28;20028;-45
2021/01/11 01:41:45;;;;;;;26.45;11.10;;;-3275.90;65.20;;;;;;5059111;28;20032;-43
2021/01/11 01:44:11;;;;;;;27.40;10.95;;;-3275.70;65.60;;;;;;5053858;28;20397;-44
2021/01/11 01:46:37;;;;;;;27.40;11.40;;;-3275.70;65.90;;;;;;5053995;28;20051;-43
2021/01/11 01:49:04;;;;;;;28.30;10.70;;;-3275.80;66.00;;;;;;5053891;28;20029;-42
2021/01/11 01:51:30;;;;;;;27.48;11.68;;;-3275.70;66.10;;;;;;5042847;28;20425;-44
2021/01/11 01:53:56;;;;;;;26.92;10.48;;;-3275.70;66.10;;;;;;5052743;28;20067;-44
2021/01/11 01:56:24;;;;;;;24.88;9.77;;;-3275.70;66.10;;;;;;5062052;28;20032;-42
2021/01/11 01:58:51;;;;;;;26.83;10.45;;;-3275.70;66.10;;;;;;5074037;28;20033;-42
2021/01/11 02:01:17;;;;;;;28.17;10.45;;;-3275.50;66.30;;;;;;5073693;28;20020;-43
2021/01/11 02:03:43;;;;;;;30.40;11.82;;;-3275.60;66.50;;;;;;5073964;28;20090;-43
2021/01/11 02:06:09;;;;;;;24.05;10.82;;;-3275.60;66.70;;;;;;5073618;28;20041;-42
2021/01/11 02:08:55;;;;;;;26.60;10.18;;;-3275.60;66.80;;;;;;5072472;28;20499;-43
2021/01/11 02:11:26;;;;;;;28.10;11.07;;;-3275.60;66.40;;;;;;5073150;28;20073;-43
2021/01/11 02:13:58;;;;;;;24.35;11.05;;;-3275.50;66.90;;;;;;5073586;28;20111;-42
2021/01/11 02:16:59;;;;;;;27.33;10.52;;;-3275.50;66.70;;;;;;5073669;28;20082;-43
2021/01/11 02:19:39;;;;;;;25.38;11.05;;;-3275.60;66.60;;;;;;5030942;28;20060;-44
2021/01/11 02:22:34;;;;;;;23.35;8.70;;;-3275.60;66.20;;;;;;5063259;28;20051;-43
2021/01/11 02:25:37;;;;;;;23.30;10.10;;;-3275.60;66.00;;;;;;5052925;28;20047;-43
2021/01/11 02:28:15;;;;;;;25.58;10.15;;;-3275.60;66.20;;;;;;5056864;28;20404;-43
2021/01/11 02:30:42;;;;;;;24.08;10.10;;;-3275.50;66.20;;;;;;5073387;28;20032;-42
2021/01/11 02:33:11;;;;;;;21.77;9.57;;;-3275.40;66.30;;;;;;5072996;28;20027;-42
2021/01/11 02:35:51;;;;;;;17.17;7.43;;;-3275.40;66.60;;;;;;5073170;28;20047;-43
2021/01/11 02:38:19;;;;;;;22.65;9.15;;;-3275.30;66.80;;;;;;5072881;28;20112;-43
2021/01/11 02:40:45;;;;;;;27.75;11.07;;;-3275.30;67.20;;;;;;5070831;28;20033;-42
2021/01/11 02:43:12;;;;;;;26.40;10.68;;;-3275.30;67.00;;;;;;5057236;28;20029;-47
2021/01/11 02:45:38;;;;;;;26.98;11.75;;;-3275.40;66.90;;;;;;5052938;28;20107;-43
2021/01/11 02:48:21;;;;;;;30.13;11.65;;;-3275.40;67.00;;;;;;5052948;28;20029;-45
2021/01/11 02:50:53;;;;;;;24.20;9.98;;;-3275.40;67.00;;;;;;5052983;28;20056;-43
2021/01/11 02:53:38;;;;;;;30.42;11.35;;;-3275.40;66.90;;;;;;5068605;28;20036;-43
2021/01/11 02:56:07;;;;;;;23.60;10.30;;;-3275.40;67.20;;;;;;5066544;28;20025;-43
2021/01/11 02:59:12;;;;;;;25.08;9.48;;;-3275.50;66.80;;;;;;5052951;28;20029;-43
2021/01/11 03:01:57;;;;;;;28.50;11.00;;;-3275.50;66.80;;;;;;5022350;28;20401;-43
2021/01/11 03:04:25;;;;;;;24.97;11.43;;;-3275.40;67.00;;;;;;5052862;28;20025;-42
2021/01/11 03:06:56;;;;;;;24.10;9.77;;;-3275.40;67.10;;;;;;5052628;28;20049;-43
2021/01/11 03:09:22;;;;;;;27.08;11.68;;;-3275.50;67.00;;;;;;5052398;28;20040;-42
2021/01/11 03:11:48;;;;;;;29.85;11.10;;;-3275.50;67.10;;;;;;5052443;28;20021;-44
2021/01/11 03:14:14;;;;;;;27.27;11.70;;;-3275.50;66.90;;;;;;5052509;28;20524;-44
2021/01/11 03:16:40;;;;;;;26.42;11.02;;;-3275.60;66.70;;;;;;5053091;28;20057;-44
2021/01/11 03:19:06;;;;;;;27.33;9.95;;;-3275.50;66.50;;;;;;5052390;28;20056;-42
2021/01/11 03:21:36;;;;;;;24.50;11.20;;;-3275.60;66.60;;;;;;5050305;28;20025;-42
2021/01/11 03:24:02;;;;;;;26.42;11.38;;;-3275.50;66.50;;;;;;5034386;28;20079;-42
2021/01/11 03:26:28;;;;;;;27.73;11.15;;;-3275.50;66.80;;;;;;5052032;28;20090;-42
2021/01/11 03:28:54;;;;;;;25.65;11.18;;;-3275.50;66.70;;;;;;5052532;28;20473;-43
2021/01/11 03:31:21;;;;;;;28.58;11.63;;;-3275.40;66.60;;;;;;5051909;28;20485;-43
2021/01/11 03:33:47;;;;;;;25.50;10.35;;;-3275.40;66.80;;;;;;5062874;28;20032;-42
2021/01/11 03:36:13;;;;;;;23.63;9.73;;;-3275.50;66.60;;;;;;5072658;28;20040;-43
2021/01/11 03:38:40;;;;;;;30.02;11.65;;;-3275.40;66.90;;;;;;5054088;28;20047;-42
2021/01/11 03:41:09;;;;;;;26.63;10.75;;;-3275.40;67.00;;;;;;5060819;28;20071;-42
2021/01/11 03:43:39;;;;;;;21.08;8.63;;;-3275.40;67.10;;;;;;5052060;28;20047;-43
2021/01/11 03:46:06;;;;;;;29.73;12.02;;;-3275.40;66.80;;;;;;5051104;28;20139;-43
2021/01/11 03:48:32;;;;;;;22.92;10.40;;;-3275.30;66.90;;;;;;5052124;28;20033;-42
2021/01/11 03:50:59;;;;;;;26.50;10.68;;;-3275.30;67.10;;;;;;5051457;28;20029;-43
2021/01/11 03:53:25;;;;;;;27.52;10.90;;;-3275.30;67.30;;;;;;5050868;28;20037;-42
2021/01/11 03:55:50;;;;;;;26.60;10.63;;;-3275.20;67.10;;;;;;5056083;28;20369;-42
2021/01/11 03:58:16;;;;;;;27.65;11.57;;;-3275.20;67.00;;;;;;5070823;28;20480;-44
2021/01/11 04:00:42;;;;;;;26.27;10.25;;;-3275.20;66.90;;;;;;5072168;28;20086;-42
2021/01/11 04:03:08;;;;;;;28.40;12.10;;;-3275.20;67.40;;;;;;5072126;28;20032;-43
2021/01/11 04:05:35;;;;;;;27.92;11.10;;;-3275.20;67.30;;;;;;5071751;28;20119;-42
2021/01/11 04:08:03;;;;;;;26.80;11.50;;;-3275.20;67.30;;;;;;5057400;28;20091;-41
2021/01/11 04:10:29;;;;;;;27.73;11.63;;;-3275.20;67.40;;;;;;5051606;28;20057;-43
2021/01/11 04:12:55;;;;;;;27.90;12.63;;;-3275.30;67.40;;;;;;5052005;28;20033;-42
2021/01/11 04:15:21;;;;;;;25.35;10.60;;;-3275.20;67.00;;;;;;5051832;28;20044;-42
2021/01/11 04:17:50;;;;;;;29.73;10.98;;;-3275.20;66.90;;;;;;5051968;28;20112;-42
2021/01/11 04:20:15;;;;;;;27.83;11.07;;;-3275.20;67.00;;;;;;5050728;28;20457;-42
2021/01/11 04:22:41;;;;;;;25.85;11.90;;;-3275.30;67.10;;;;;;5051754;28;20028;-42
2021/01/11 04:25:07;;;;;;;28.70;10.90;;;-3275.30;66.80;;;;;;5051997;28;20029;-42
2021/01/11 04:27:33;;;;;;;24.52;10.05;;;-3275.20;66.90;;;;;;5060922;28;20024;-42
2021/01/11 04:29:59;;;;;;;24.75;11.10;;;-3275.20;67.00;;;;;;5071646;28;20171;-43
2021/01/11 04:32:24;;;;;;;28.77;10.82;;;-3275.20;66.30;;;;;;5073137;28;20024;-42
2021/01/11 04:34:50;;;;;;;25.60;10.60;;;-3275.10;66.70;;;;;;5075760;28;20040;-41
2021/01/11 04:37:16;;;;;;;30.05;11.90;;;-3275.10;67.00;;;;;;5075307;28;20392;-42
2021/01/11 04:39:42;;;;;;;26.98;11.30;;;-3275.20;66.90;;;;;;5075053;28;20047;-43
2021/01/11 04:42:16;;;;;;;24.40;10.07;;;-3275.20;66.80;;;;;;5056254;28;20362;-43
2021/01/11 04:44:42;;;;;;;30.20;11.75;;;-3275.10;66.90;;;;;;5055126;28;20041;-42
2021/01/11 04:47:11;;;;;;;27.83;11.05;;;-3275.00;67.30;;;;;;5055163;28;20405;-43
2021/01/11 04:49:37;;;;;;;26.23;11.00;;;-3275.00;67.30;;;;;;5054903;28;20077;-43
2021/01/11 04:52:07;;;;;;;29.80;12.13;;;-3275.00;67.40;;;;;;5059148;28;20439;-44
2021/01/11 04:54:35;;;;;;;27.20;10.80;;;-3275.10;67.30;;;;;;5063606;28;20050;-42
2021/01/11 04:57:01;;;;;;;29.13;11.20;;;-3275.10;67.30;;;;;;5060813;28;20033;-42
2021/01/11 04:59:28;;;;;;;25.92;10.00;;;-3275.10;66.70;;;;;;5055082;28;20098;-42
2021/01/11 05:01:56;;;;;;;28.15;12.02;;;-3275.10;66.80;;;;;;5053738;28;20055;-43
2021/01/11 05:04:22;;;;;;;27.27;11.18;;;-3275.10;66.70;;;;;;5053415;28;20067;-42
2021/01/11 05:06:48;;;;;;;27.90;10.95;;;-3275.10;66.70;;;;;;5053315;28;20073;-43
2021/01/11 05:09:17;;;;;;;24.25;11.20;;;-3275.00;66.90;;;;;;5054781;28;20565;-42
2021/01/11 05:11:42;;;;;;;24.77;12.13;;;-3274.90;67.30;;;;;;5071361;28;20507;-44
2021/01/11 05:14:15;;;;;;;29.30;10.63;;;-3275.00;67.10;;;;;;5074575;28;20103;-44
2021/01/11 05:16:41;;;;;;;20.90;9.88;;;-3275.00;67.30;;;;;;5074136;28;20036;-42
2021/01/11 05:19:26;;;;;;;28.15;11.43;;;-3275.00;67.20;;;;;;5074341;28;20101;-42
2021/01/11 05:21:52;;;;;;;28.13;12.57;;;-3274.80;67.30;;;;;;5074564;28;20460;-41
2021/01/11 05:24:38;;;;;;;27.85;12.07;;;-3274.90;67.30;;;;;;5073794;28;20380;-42
2021/01/11 05:27:10;;;;;;;27.40;11.32;;;-3274.90;67.20;;;;;;5064972;28;20045;-42
2021/01/11 05:29:38;;;;;;;29.40;11.15;;;-3274.80;67.60;;;;;;5052992;28;20087;-42
2021/01/11 05:32:06;;;;;;;30.02;11.48;;;-3274.90;67.50;;;;;;5059127;28;20036;-41
2021/01/11 05:34:52;;;;;;;29.75;11.45;;;-3274.90;67.40;;;;;;5074400;28;20033;-42
2021/01/11 05:37:58;;;;;;;29.75;12.20;;;-3274.90;67.30;;;;;;5074540;28;20119;-42
2021/01/11 05:40:26;;;;;;;20.77;8.32;;;-3274.90;67.30;;;;;;5032008;28;20061;-42
2021/01/11 05:42:57;;;;;;;30.00;11.32;;;-3275.00;66.90;;;;;;5050412;28;20040;-42
2021/01/11 05:45:28;;;;;;;28.95;11.00;;;-3274.90;67.00;;;;;;5053625;28;20045;-42
2021/01/11 05:47:54;;;;;;;25.33;11.20;;;-3274.90;67.10;;;;;;5054041;28;20033;-43
2021/01/11 05:50:20;;;;;;;31.13;13.13;;;-3274.90;67.40;;;;;;5054630;28;20112;-42
2021/01/11 05:52:45;;;;;;;25.60;11.00;;;-3274.80;67.60;;;;;;5053728;28;20382;-44
2021/01/11 05:55:26;;;;;;;29.25;11.82;;;-3274.90;67.40;;;;;;5065135;28;20108;-42
2021/01/11 05:58:03;;;;;;;28.75;11.27;;;-3274.90;67.30;;;;;;5072807;28;20024;-42
2021/01/11 06:00:34;;;;;;;29.50;12.77;;;-3274.90;67.40;;;;;;5073381;28;20029;-43
2021/01/11 06:03:01;;;;;;;29.02;11.10;;;-3274.90;67.30;;;;;;5072349;28;20029;-45
2021/01/11 06:05:29;;;;;;;30.35;13.13;;;-3274.90;67.20;;;;;;5072189;28;20502;-43
2021/01/11 06:07:56;;;;;;;31.67;12.65;;;-3274.90;67.30;;;;;;5073686;28;20094;-43
2021/01/11 06:10:23;;;;;;;26.88;11.18;;;-3274.90;67.00;;;;;;5073747;28;20024;-44
2021/01/11 06:12:50;;;;;;;24.67;10.98;;;-3274.90;67.20;;;;;;5073538;28;20469;-42
2021/01/11 06:15:18;;;;;;;28.00;11.93;;;-3274.90;67.50;;;;;;5072380;28;20071;-43
2021/01/11 06:17:46;;;;;;;32.45;11.23;;;-3274.90;67.40;;;;;;5071824;28;20102;-44
2021/01/11 06:20:23;;;;;;;33.22;13.52;;;-3274.80;67.70;;;;;;5072279;28;20123;-43
2021/01/11 06:22:49;;;;;;;28.35;11.85;;;-3275.00;67.50;;;;;;5072960;28;20124;-44
2021/01/11 06:25:17;;;;;;;30.27;11.98;;;-3275.00;67.30;;;;;;5066670;28;20111;-42
2021/01/11 06:28:02;;;;;;;26.88;11.57;;;-3274.90;67.10;;;;;;5053164;28;20116;-42
2021/01/11 06:30:36;;;;;;;28.08;11.18;;;-3274.90;67.30;;;;;;5053008;28;20125;-43
2021/01/11 06:33:12;;;;;;;28.20;11.68;;;-3274.80;67.20;;;;;;5055430;28;20028;-42
2021/01/11 06:35:48;;;;;;;29.13;11.73;;;-3274.80;67.40;;;;;;5073006;28;20124;-42
2021/01/11 06:38:25;;;;;;;29.80;11.35;;;-3274.80;66.80;;;;;;5071938;28;20082;-42
2021/01/11 06:41:04;;;;;;;28.48;12.00;;;-3274.70;67.10;;;;;;5062846;28;20397;-43
2021/01/11 06:43:41;;;;;;;30.17;12.65;;;-3274.80;67.30;;;;;;5052991;28;20069;-43
2021/01/11 06:46:07;;;;;;;25.55;10.25;;;-3274.60;67.60;;;;;;5052961;28;20041;-43
2021/01/11 06:48:34;;;;;;;31.15;13.32;;;-3274.60;67.60;;;;;;5052992;28;20060;-43
2021/01/11 06:51:08;;;;;;;30.60;12.55;;;-3274.70;67.80;;;;;;5052803;28;20058;-42
2021/01/11 06:53:35;;;;;;;26.33;11.88;;;-3274.60;67.90;;;;;;5052282;28;20028;-42
2021/01/11 06:56:11;;;;;;;28.45;11.25;;;-3274.70;67.80;;;;;;5051808;28;20033;-42
2021/01/11 06:58:38;;;;;;;31.92;12.88;;;-3274.70;67.60;;;;;;5070437;28;20035;-42
2021/01/11 07:01:11;;;;;;;30.50;11.93;;;-3274.50;67.60;;;;;;5072904;28;20392;-42
2021/01/11 07:03:47;;;;;;;31.42;11.45;;;-3274.60;67.80;;;;;;5054389;28;20056;-43
2021/01/11 07:06:44;;;;;;;29.05;12.10;;;-3274.30;68.60;;;;;;5072769;28;20136;-42
2021/01/11 07:09:18;;;;;;;29.02;11.10;;;-3274.30;68.90;;;;;;5073086;28;20119;-43
2021/01/11 07:11:49;;;;;;;25.70;10.25;;;-3274.40;68.50;;;;;;5072351;28;20039;-43
2021/01/11 07:14:22;;;;;;;28.35;11.07;;;-3274.40;68.30;;;;;;5071571;28;20036;-43
2021/01/11 07:16:50;;;;;;;28.27;11.55;;;-3274.40;68.40;;;;;;5072352;28;20049;-43
2021/01/11 07:19:21;;;;;;;25.55;10.98;;;-3274.40;68.30;;;;;;5072428;28;20060;-42
2021/01/11 07:21:50;;;;;;;29.70;11.50;;;-3274.50;68.30;;;;;;5070522;28;20032;-42
2021/01/11 07:24:17;;;;;;;28.23;10.60;;;-3274.50;68.30;;;;;;5059757;28;20037;-41
2021/01/11 07:26:43;;;;;;;27.75;12.18;;;-3274.50;68.30;;;;;;5037248;28;20062;-43
2021/01/11 07:29:11;;;;;;;32.83;12.70;;;-3274.30;68.30;;;;;;5058557;28;20116;-41
2021/01/11 07:31:39;;;;;;;29.98;12.52;;;-3274.20;69.20;;;;;;5052872;28;20044;-42
2021/01/11 07:34:16;;;;;;;28.23;12.07;;;-3274.20;69.10;;;;;;5062870;28;20438;-42
2021/01/11 07:36:52;;;;;;;27.27;10.95;;;-3274.30;69.00;;;;;;5071877;28;20361;-44
2021/01/11 07:39:29;;;;;;;28.80;11.90;;;-3274.40;68.60;;;;;;5072141;28;20085;-43
2021/01/11 07:42:04;;;;;;;31.58;12.18;;;-3274.40;68.70;;;;;;5070304;28;20037;-42
2021/01/11 07:44:39;;;;;;;31.15;12.10;;;-3274.40;68.80;;;;;;5072108;28;20377;-42
2021/01/11 07:47:10;;;;;;;30.45;12.40;;;-3274.50;68.60;;;;;;5072047;28;20451;-43
2021/01/11 07:49:41;;;;;;;31.90;13.60;;;-3274.40;68.60;;;;;;5069494;28;20028;-43
2021/01/11 07:52:18;;;;;;;31.30;11.82;;;-3274.40;68.60;;;;;;5071866;28;20101;-42
2021/01/11 07:54:44;;;;;;;31.58;11.88;;;-3274.40;68.20;;;;;;5072058;28;20020;-42
2021/01/11 07:57:12;;;;;;;24.48;10.68;;;-3274.50;68.20;;;;;;5070861;28;20484;-43
2021/01/11 07:59:39;;;;;;;29.60;12.25;;;-3274.50;68.10;;;;;;5071964;28;20519;-42
2021/01/11 08:02:13;;;;;;;33.80;12.48;;;-3274.50;68.00;;;;;;5072006;28;20052;-42
2021/01/11 08:04:40;;;;;;;29.13;12.18;;;-3274.50;68.00;;;;;;5068821;28;20028;-42
2021/01/11 08:07:10;;;;;;;31.73;11.63;;;-3274.60;68.00;;;;;;5053546;28;20396;-42
2021/01/11 08:09:37;;;;;;;26.90;12.27;;;-3274.60;68.10;;;;;;5055837;28;20370;-49
2021/01/11 08:12:16;;;;;;;28.85;11.60;;;-3274.60;68.00;;;;;;5056303;28;20036;-42
2021/01/11 08:14:44;;;;;;;26.08;10.93;;;-3274.60;67.70;;;;;;5055624;28;20048;-41
2021/01/11 08:17:15;;;;;;;30.95;12.65;;;-3274.60;67.60;;;;;;5055611;28;20040;-42
2021/01/11 08:19:42;;;;;;;27.45;11.68;;;-3274.70;67.70;;;;;;5054245;28;20076;-41
2021/01/11 08:22:10;;;;;;;26.83;11.77;;;-3274.80;67.10;;;;;;5056061;28;20037;-43
2021/01/11 08:24:41;;;;;;;30.58;11.30;;;-3274.70;67.30;;;;;;5056579;28;20048;-43
2021/01/11 08:27:33;;;;;;;28.15;10.60;;;-3274.80;67.20;;;;;;5071767;28;20114;-43
2021/01/11 08:30:07;;;;;;;26.77;11.25;;;-3274.90;66.20;;;;;;5075649;28;20040;-43
2021/01/11 08:32:34;;;;;;;30.83;12.27;;;-3274.90;66.20;;;;;;5075509;28;20056;-44
2021/01/11 08:35:17;;;;;;;27.95;11.60;;;-3274.90;66.50;;;;;;5075257;28;20387;-43
2021/01/11 08:37:43;;;;;;;31.85;12.90;;;-3275.00;66.20;;;;;;5075266;28;20024;-45
2021/01/11 08:40:17;;;;;;;31.63;12.00;;;-3275.00;66.00;;;;;;5072109;28;20094;-43
2021/01/11 08:42:44;;;;;;;31.13;12.85;;;-3274.90;66.20;;;;;;5053901;28;20079;-45
2021/01/11 08:45:38;;;;;;;29.75;12.25;;;-3274.90;66.80;;;;;;5055269;28;20036;-43
2021/01/11 08:48:14;;;;;;;28.33;10.75;;;-3274.90;66.10;;;;;;5055423;28;20036;-43
2021/01/11 08:50:41;;;;;;;30.92;12.90;;;-3274.90;66.20;;;;;;5055116;28;20036;-43
2021/01/11 08:53:21;;;;;;;25.50;10.63;;;-3275.00;66.20;;;;;;5055340;28;20033;-44
2021/01/11 08:56:12;;;;;;;27.75;12.43;;;-3275.00;65.80;;;;;;5055379;28;20400;-45
2021/01/11 08:58:48;;;;;;;29.42;12.93;;;-3275.10;65.60;;;;;;5054927;28;20024;-50
2021/01/11 09:01:16;;;;;;;28.33;11.52;;;-3275.30;65.20;;;;;;5055104;28;20033;-46
2021/01/11 09:03:55;;;;;;;29.63;11.90;;;-3275.00;65.60;;;;;;5053683;28;20171;-45
2021/01/11 09:06:41;;;;;;;29.25;12.18;;;-3275.00;65.70;;;;;;5055142;28;20033;-44
2021/01/11 09:09:12;;;;;;;28.40;11.45;;;-3275.10;65.90;;;;;;5055145;28;20048;-43
2021/01/11 09:11:42;;;;;;;27.77;11.68;;;-3275.20;65.40;;;;;;5055107;28;20041;-44
2021/01/11 09:14:14;;;;;;;30.08;12.18;;;-3275.30;65.30;;;;;;5070560;28;20036;-44
2021/01/11 09:16:42;;;;;;;27.30;11.60;;;-3275.30;65.30;;;;;;5075449;28;20028;-46
2021/01/11 09:19:19;;;;;;;31.60;12.50;;;-3275.50;64.30;;;;;;5074561;28;20135;-45
2021/01/11 09:22:02;;;;;;;28.73;12.50;;;-3275.50;64.60;;;;;;5074702;28;20072;-45
2021/01/11 09:24:29;;;;;;;32.70;12.63;;;-3275.50;64.00;;;;;;5071669;28;20037;-44
2021/01/11 09:26:56;;;;;;;28.38;12.18;;;-3275.60;63.60;;;;;;5054586;28;20037;-45
2021/01/11 09:29:22;;;;;;;31.40;12.40;;;-3275.60;64.30;;;;;;5070783;28;20126;-49
2021/01/11 09:31:49;;;;;;;31.00;13.30;;;-3275.60;63.90;;;;;;5054625;28;20029;-45
2021/01/11 09:34:15;;;;;;;27.65;10.98;;;-3275.70;63.50;;;;;;5066417;28;20036;-45
2021/01/11 09:36:41;;;;;;;36.35;13.10;;;-3275.70;63.60;;;;;;5074469;28;20033;-44
2021/01/11 09:39:09;;;;;;;32.55;12.82;;;-3275.70;64.00;;;;;;5074934;28;20075;-45
2021/01/11 09:41:41;;;;;;;29.83;13.32;;;-3275.80;63.60;;;;;;5060560;28;20029;-45
2021/01/11 09:44:07;;;;;;;32.80;12.77;;;-3275.80;63.70;;;;;;5053464;28;20484;-44
2021/01/11 09:46:40;;;;;;;28.42;12.43;;;-3275.90;63.20;;;;;;5053311;28;20037;-46
2021/01/11 09:49:05;;;;;;;30.45;12.50;;;-3275.60;63.50;;;;;;5054168;28;20043;-45
2021/01/11 09:51:31;;;;;;;29.45;12.98;;;-3275.80;63.20;;;;;;5054373;28;20033;-45
2021/01/11 09:53:57;;;;;;;29.65;12.48;;;-3275.90;63.00;;;;;;5058444;28;20041;-43
2021/01/11 09:56:23;;;;;;;29.73;12.15;;;-3275.90;62.90;;;;;;5053793;28;20025;-44
2021/01/11 09:58:53;;;;;;;34.15;12.88;;;-3275.90;62.80;;;;;;5053508;28;20036;-44
2021/01/11 10:01:19;;;;;;;31.42;12.80;;;-3276.10;62.70;;;;;;5053987;28;20433;-44
2021/01/11 10:03:46;;;;;;;25.92;10.70;;;-3276.10;62.60;;;;;;5055908;28;20029;-44
2021/01/11 10:06:12;;;;;;;31.70;13.68;;;-3276.00;62.00;;;;;;5073857;28;20052;-43
2021/01/11 10:08:37;;;;;;;29.13;11.95;;;-3275.90;62.70;;;;;;5073212;28;20039;-45
2021/01/11 10:11:12;;;;;;;30.60;13.00;;;-3276.10;62.50;;;;;;5063044;28;20458;-46
2021/01/11 10:13:37;;;;;;;32.78;12.80;;;-3276.00;62.20;;;;;;5053412;28;20583;-44
2021/01/11 10:16:04;;;;;;;30.17;12.13;;;-3276.10;62.20;;;;;;5053628;28;20044;-44
2021/01/11 10:18:29;;;;;;;31.45;13.45;;;-3275.90;62.50;;;;;;5052957;28;20056;-44
2021/01/11 10:20:55;;;;;;;31.77;13.38;;;-3276.00;62.40;;;;;;5056593;28;20118;-46
2021/01/11 10:23:21;;;;;;;32.97;13.48;;;-3276.00;62.30;;;;;;5073162;28;20446;-48
2021/01/11 10:25:47;;;;;;;27.90;12.27;;;-3276.10;62.10;;;;;;5072995;28;20040;-46
2021/01/11 10:28:13;;;;;;;29.50;12.75;;;-3275.90;62.30;;;;;;5071903;28;20405;-44
2021/01/11 10:30:39;;;;;;;29.42;14.13;;;-3275.80;63.20;;;;;;5072809;28;20025;-44
2021/01/11 10:33:05;;;;;;;31.33;12.77;;;-3275.80;63.10;;;;;;5073191;28;20028;-44
2021/01/11 10:35:32;;;;;;;28.00;11.60;;;-3275.90;63.30;;;;;;5073352;28;20024;-44
2021/01/11 10:37:58;;;;;;;31.35;13.32;;;-3275.90;62.70;;;;;;5072171;28;20028;-44
2021/01/11 10:40:24;;;;;;;31.92;13.98;;;-3275.90;63.00;;;;;;5069280;28;20397;-44
2021/01/11 10:42:50;;;;;;;27.88;13.00;;;-3275.60;63.60;;;;;;5052806;28;20036;-44
2021/01/11 10:45:16;;;;;;;28.65;13.20;;;-3275.50;64.10;;;;;;5051691;28;20025;-44
2021/01/11 10:47:42;;;;;;;32.75;13.63;;;-3275.60;64.10;;;;;;5052544;28;20041;-44
2021/01/11 10:50:08;;;;;;;28.38;13.18;;;-3275.60;63.90;;;;;;5052894;28;20507;-44
2021/01/11 10:52:34;;;;;;;30.73;13.13;;;-3275.70;63.70;;;;;;5052879;28;20082;-48
2021/01/11 10:55:00;;;;;;;32.15;13.05;;;-3275.60;63.70;;;;;;5052999;28;20033;-45
2021/01/11 10:57:26;;;;;;;33.72;13.63;;;-3275.60;64.00;;;;;;5052886;28;20033;-44
2021/01/11 10:59:52;;;;;;;33.83;13.30;;;-3275.50;64.40;;;;;;5052841;28;20024;-45
2021/01/11 11:02:18;;;;;;;30.30;12.10;;;-3275.40;64.70;;;;;;5052608;28;20068;-44
2021/01/11 11:04:45;;;;;;;28.42;12.90;;;-3275.50;64.70;;;;;;5052717;28;20512;-46
2021/01/11 11:07:12;;;;;;;31.67;14.52;;;-3275.60;64.40;;;;;;5052743;28;20486;-44
2021/01/11 11:09:38;;;;;;;30.80;13.35;;;-3275.60;64.30;;;;;;5052463;28;20050;-47
2021/01/11 11:12:04;;;;;;;32.00;13.57;;;-3275.70;63.90;;;;;;5053021;28;20032;-46
2021/01/11 11:14:29;;;;;;;38.22;14.10;;;-3275.70;63.70;;;;;;5052842;28;20033;-46
2021/01/11 11:16:55;;;;;;;32.83;14.45;;;-3275.60;64.10;;;;;;5052508;28;20397;-44
2021/01/11 11:19:21;;;;;;;33.65;13.88;;;-3275.70;64.50;;;;;;5052378;28;20053;-43
2021/01/11 11:21:47;;;;;;;33.22;12.65;;;-3275.80;64.10;;;;;;5051056;28;20492;-45
2021/01/11 11:24:13;;;;;;;31.52;14.73;;;-3275.70;63.80;;;;;;5052451;28;20036;-43
2021/01/11 11:26:38;;;;;;;29.27;12.13;;;-3275.60;64.10;;;;;;5061357;28;20038;-47
2021/01/11 11:29:04;;;;;;;33.53;14.35;;;-3275.60;64.60;;;;;;5065865;28;20032;-44
2021/01/11 11:31:33;;;;;;;29.67;13.18;;;-3275.70;64.30;;;;;;5052507;28;20460;-44
2021/01/11 11:33:59;;;;;;;29.70;12.85;;;-3275.70;64.00;;;;;;5061940;28;20473;-44
2021/01/11 11:36:25;;;;;;;36.80;13.40;;;-3275.70;64.10;;;;;;5072228;28;20484;-43
2021/01/11 11:38:51;;;;;;;33.17;13.48;;;-3275.70;63.80;;;;;;5070905;28;20036;-46
2021/01/11 11:41:20;;;;;;;30.77;12.45;;;-3275.60;63.70;;;;;;5060217;28;20056;-46
2021/01/11 11:43:46;;;;;;;30.30;12.98;;;-3275.70;64.10;;;;;;5052205;28;20381;-44
2021/01/11 11:46:13;;;;;;;32.88;14.23;;;-3275.70;64.00;;;;;;5052577;28;20040;-43
2021/01/11 11:48:39;;;;;;;29.65;12.80;;;-3275.80;63.90;;;;;;5052146;28;20033;-43
2021/01/11 11:51:05;;;;;;;30.65;13.45;;;-3275.80;63.80;;;;;;5050852;28;20036;-43
2021/01/11 11:53:31;;;;;;;28.10;13.27;;;-3275.90;63.70;;;;;;5052103;28;20060;-44
2021/01/11 11:55:57;;;;;;;29.75;12.55;;;-3276.00;63.70;;;;;;5052703;28;20401;-42
2021/01/11 11:58:22;;;;;;;32.00;13.60;;;-3276.00;63.00;;;;;;5072424;28;20119;-43
2021/01/11 12:00:51;;;;;;;31.83;13.52;;;-3276.00;63.10;;;;;;5071696;28;20115;-45
2021/01/11 12:03:16;;;;;;;28.90;12.00;;;-3276.00;62.90;;;;;;5071273;28;20044;-43
2021/01/11 12:05:42;;;;;;;30.85;13.93;;;-3275.90;62.80;;;;;;5071975;28;20037;-45
2021/01/11 12:08:08;;;;;;;30.60;13.63;;;-3276.00;63.10;;;;;;5072204;28;20100;-44
2021/01/11 12:10:34;;;;;;;32.33;14.18;;;-3275.90;63.20;;;;;;5072126;28;20036;-44
2021/01/11 12:13:00;;;;;;;31.92;13.73;;;-3275.90;64.00;;;;;;5071721;28;20041;-45